sensor_id;sensor_type;location;lat;lon;timestamp;P1;durP1;ratioP1;P2;durP2;ratioP2
3149;SDS011;32503;47.748;8.960;2022-07-10T00:00:29;3.60;;;3.50;;
3149;SDS011;32503;47.748;8.960;2022-07-10T00:02:58;3.80;;;3.70;;
3149;SDS011;32503;47.748;8.960;2022-07-10T00:05:25;3.90;;;3.70;;
3149;SDS011;32503;47.748;8.960;2022-07-10T00:07:52;4.30;;;4.10;;
3149;SDS011;32503;47.748;8.960;2022-07-10T00:10:20;4.93;;;4.50;;
3149;SDS011;32503;47.748;8.960;2022-07-10T00:12:49;4.17;;;4.07;;
3149;SDS011;32503;47.748;8.960;2022-07-10T00:15:18;4.37;;;4.17;;
3149;SDS011;32503;47.748;8.960;2022-07-10T00:17:46;4.00;;;3.80;;
3149;SDS011;32503;47.748;8.960;2022-07-10T00:20:13;4.07;;;3.67;;
3149;SDS011;32503;47.748;8.960;2022-07-10T00:22:41;4.80;;;3.50;;
3149;SDS011;32503;47.748;8.960;2022-07-10T00:25:09;3.63;;;3.53;;
3149;SDS011;32503;47.748;8.960;2022-07-10T00:27:38;3.80;;;3.70;;
3149;SDS011;32503;47.748;8.960;2022-07-10T00:30:08;3.80;;;3.70;;
3149;SDS011;32503;47.748;8.960;2022-07-10T00:32:36;3.87;;;3.70;;
3149;SDS011;32503;47.748;8.960;2022-07-10T00:35:04;4.17;;;3.40;;
3149;SDS011;32503;47.748;8.960;2022-07-10T00:37:32;3.33;;;3.23;;
3149;SDS011;32503;47.748;8.960;2022-07-10T00:39:59;3.87;;;3.57;;
3149;SDS011;32503;47.748;8.960;2022-07-10T00:42:27;4.20;;;3.97;;
3149;SDS011;32503;47.748;8.960;2022-07-10T00:44:54;3.60;;;3.40;;
3149;SDS011;32503;47.748;8.960;2022-07-10T00:47:22;3.47;;;3.27;;
3149;SDS011;32503;47.748;8.960;2022-07-10T00:49:49;3.93;;;3.77;;
3149;SDS011;32503;47.748;8.960;2022-07-10T00:52:18;4.03;;;3.70;;
3149;SDS011;32503;47.748;8.960;2022-07-10T00:54:47;3.50;;;3.30;;
3149;SDS011;32503;47.748;8.960;2022-07-10T00:57:16;4.27;;;4.07;;
3149;SDS011;32503;47.748;8.960;2022-07-10T00:59:44;4.40;;;4.20;;
3149;SDS011;32503;47.748;8.960;2022-07-10T01:02:13;3.93;;;3.80;;
3149;SDS011;32503;47.748;8.960;2022-07-10T01:04:42;3.73;;;3.53;;
3149;SDS011;32503;47.748;8.960;2022-07-10T01:07:09;3.60;;;3.30;;
3149;SDS011;32503;47.748;8.960;2022-07-10T01:09:37;5.47;;;4.20;;
3149;SDS011;32503;47.748;8.960;2022-07-10T01:12:05;4.17;;;4.07;;
3149;SDS011;32503;47.748;8.960;2022-07-10T01:14:33;3.70;;;3.50;;
3149;SDS011;32503;47.748;8.960;2022-07-10T01:17:04;3.90;;;3.70;;
3149;SDS011;32503;47.748;8.960;2022-07-10T01:19:33;3.50;;;3.40;;
3149;SDS011;32503;47.748;8.960;2022-07-10T01:22:02;3.97;;;3.77;;
3149;SDS011;32503;47.748;8.960;2022-07-10T01:24:30;3.77;;;3.57;;
3149;SDS011;32503;47.748;8.960;2022-07-10T01:26:57;3.40;;;3.30;;
3149;SDS011;32503;47.748;8.960;2022-07-10T01:29:24;4.70;;;4.33;;
3149;SDS011;32503;47.748;8.960;2022-07-10T01:31:53;3.77;;;3.67;;
3149;SDS011;32503;47.748;8.960;2022-07-10T01:34:20;3.43;;;3.23;;
3149;SDS011;32503;47.748;8.960;2022-07-10T01:36:47;4.50;;;4.20;;
3149;SDS011;32503;47.748;8.960;2022-07-10T01:39:15;4.47;;;4.13;;
3149;SDS011;32503;47.748;8.960;2022-07-10T01:41:42;4.20;;;4.00;;
3149;SDS011;32503;47.748;8.960;2022-07-10T01:44:09;3.77;;;3.57;;
3149;SDS011;32503;47.748;8.960;2022-07-10T01:46:42;4.20;;;4.00;;
3149;SDS011;32503;47.748;8.960;2022-07-10T01:49:11;4.30;;;4.10;;
3149;SDS011;32503;47.748;8.960;2022-07-10T01:51:38;4.07;;;3.87;;
3149;SDS011;32503;47.748;8.960;2022-07-10T01:54:05;3.60;;;3.40;;
3149;SDS011;32503;47.748;8.960;2022-07-10T01:56:33;4.00;;;3.90;;
3149;SDS011;32503;47.748;8.960;2022-07-10T01:59:01;3.53;;;3.37;;
3149;SDS011;32503;47.748;8.960;2022-07-10T02:01:29;4.00;;;3.80;;
3149;SDS011;32503;47.748;8.960;2022-07-10T02:03:56;4.13;;;4.00;;
3149;SDS011;32503;47.748;8.960;2022-07-10T02:06:41;4.00;;;3.80;;
3149;SDS011;32503;47.748;8.960;2022-07-10T02:09:08;4.00;;;3.90;;
3149;SDS011;32503;47.748;8.960;2022-07-10T02:11:37;4.40;;;4.10;;
3149;SDS011;32503;47.748;8.960;2022-07-10T02:14:04;4.40;;;4.20;;
3149;SDS011;32503;47.748;8.960;2022-07-10T02:16:33;4.40;;;4.20;;
3149;SDS011;32503;47.748;8.960;2022-07-10T02:19:00;3.77;;;3.57;;
3149;SDS011;32503;47.748;8.960;2022-07-10T02:21:28;4.07;;;3.87;;
3149;SDS011;32503;47.748;8.960;2022-07-10T02:23:55;4.07;;;3.87;;
3149;SDS011;32503;47.748;8.960;2022-07-10T02:26:22;3.90;;;3.80;;
3149;SDS011;32503;47.748;8.960;2022-07-10T02:28:50;4.47;;;4.27;;
3149;SDS011;32503;47.748;8.960;2022-07-10T02:31:17;3.83;;;3.73;;
3149;SDS011;32503;47.748;8.960;2022-07-10T02:33:44;4.50;;;4.20;;
3149;SDS011;32503;47.748;8.960;2022-07-10T02:36:11;4.37;;;4.17;;
3149;SDS011;32503;47.748;8.960;2022-07-10T02:38:39;4.83;;;4.27;;
3149;SDS011;32503;47.748;8.960;2022-07-10T02:41:06;5.27;;;4.97;;
3149;SDS011;32503;47.748;8.960;2022-07-10T02:43:33;4.93;;;4.73;;
3149;SDS011;32503;47.748;8.960;2022-07-10T02:46:01;4.67;;;4.37;;
3149;SDS011;32503;47.748;8.960;2022-07-10T02:48:28;4.00;;;3.80;;
3149;SDS011;32503;47.748;8.960;2022-07-10T02:50:56;4.03;;;3.93;;
3149;SDS011;32503;47.748;8.960;2022-07-10T02:53:23;4.37;;;4.17;;
3149;SDS011;32503;47.748;8.960;2022-07-10T02:55:50;4.10;;;3.90;;
3149;SDS011;32503;47.748;8.960;2022-07-10T02:58:17;4.00;;;3.80;;
3149;SDS011;32503;47.748;8.960;2022-07-10T03:00:44;3.80;;;3.70;;
3149;SDS011;32503;47.748;8.960;2022-07-10T03:03:13;4.20;;;4.03;;
3149;SDS011;32503;47.748;8.960;2022-07-10T03:05:42;4.40;;;4.20;;
3149;SDS011;32503;47.748;8.960;2022-07-10T03:08:09;5.63;;;5.20;;
3149;SDS011;32503;47.748;8.960;2022-07-10T03:10:36;5.73;;;5.37;;
3149;SDS011;32503;47.748;8.960;2022-07-10T03:13:04;4.23;;;4.10;;
3149;SDS011;32503;47.748;8.960;2022-07-10T03:15:31;4.10;;;4.00;;
3149;SDS011;32503;47.748;8.960;2022-07-10T03:17:58;4.47;;;4.27;;
3149;SDS011;32503;47.748;8.960;2022-07-10T03:20:27;5.10;;;4.80;;
3149;SDS011;32503;47.748;8.960;2022-07-10T03:22:54;4.70;;;4.50;;
3149;SDS011;32503;47.748;8.960;2022-07-10T03:25:21;4.37;;;4.17;;
3149;SDS011;32503;47.748;8.960;2022-07-10T03:27:48;4.60;;;4.40;;
3149;SDS011;32503;47.748;8.960;2022-07-10T03:30:15;4.60;;;4.40;;
3149;SDS011;32503;47.748;8.960;2022-07-10T03:32:42;4.83;;;4.40;;
3149;SDS011;32503;47.748;8.960;2022-07-10T03:35:09;4.27;;;4.13;;
3149;SDS011;32503;47.748;8.960;2022-07-10T03:37:38;3.80;;;3.70;;
3149;SDS011;32503;47.748;8.960;2022-07-10T03:40:05;4.40;;;4.20;;
3149;SDS011;32503;47.748;8.960;2022-07-10T03:42:33;4.30;;;4.10;;
3149;SDS011;32503;47.748;8.960;2022-07-10T03:45:01;5.30;;;4.87;;
3149;SDS011;32503;47.748;8.960;2022-07-10T03:47:29;4.50;;;4.30;;
3149;SDS011;32503;47.748;8.960;2022-07-10T03:49:56;4.77;;;4.57;;
3149;SDS011;32503;47.748;8.960;2022-07-10T03:52:23;4.87;;;4.57;;
3149;SDS011;32503;47.748;8.960;2022-07-10T03:54:53;5.00;;;4.70;;
3149;SDS011;32503;47.748;8.960;2022-07-10T03:57:20;4.50;;;4.30;;
3149;SDS011;32503;47.748;8.960;2022-07-10T04:00:05;5.03;;;4.80;;
3149;SDS011;32503;47.748;8.960;2022-07-10T04:02:34;4.63;;;4.30;;
3149;SDS011;32503;47.748;8.960;2022-07-10T04:05:01;4.60;;;4.40;;
3149;SDS011;32503;47.748;8.960;2022-07-10T04:07:31;4.87;;;4.57;;
3149;SDS011;32503;47.748;8.960;2022-07-10T04:10:00;4.40;;;4.30;;
3149;SDS011;32503;47.748;8.960;2022-07-10T04:12:27;4.47;;;4.27;;
3149;SDS011;32503;47.748;8.960;2022-07-10T04:14:54;5.17;;;4.87;;
3149;SDS011;32503;47.748;8.960;2022-07-10T04:17:21;4.03;;;3.83;;
3149;SDS011;32503;47.748;8.960;2022-07-10T04:19:48;4.83;;;4.60;;
3149;SDS011;32503;47.748;8.960;2022-07-10T04:22:15;4.90;;;4.70;;
3149;SDS011;32503;47.748;8.960;2022-07-10T04:24:42;4.53;;;4.37;;
3149;SDS011;32503;47.748;8.960;2022-07-10T04:27:11;4.87;;;4.67;;
3149;SDS011;32503;47.748;8.960;2022-07-10T04:29:38;4.87;;;4.67;;
3149;SDS011;32503;47.748;8.960;2022-07-10T04:32:05;5.20;;;4.80;;
3149;SDS011;32503;47.748;8.960;2022-07-10T04:34:34;4.80;;;4.60;;
3149;SDS011;32503;47.748;8.960;2022-07-10T04:37:01;5.07;;;4.83;;
3149;SDS011;32503;47.748;8.960;2022-07-10T04:39:28;4.70;;;4.50;;
3149;SDS011;32503;47.748;8.960;2022-07-10T04:41:55;4.77;;;4.57;;
3149;SDS011;32503;47.748;8.960;2022-07-10T04:44:23;4.50;;;4.30;;
3149;SDS011;32503;47.748;8.960;2022-07-10T04:46:51;5.10;;;4.87;;
3149;SDS011;32503;47.748;8.960;2022-07-10T04:49:18;4.73;;;4.43;;
3149;SDS011;32503;47.748;8.960;2022-07-10T04:51:45;4.60;;;4.40;;
3149;SDS011;32503;47.748;8.960;2022-07-10T04:54:12;4.50;;;4.30;;
3149;SDS011;32503;47.748;8.960;2022-07-10T04:56:39;4.10;;;4.00;;
3149;SDS011;32503;47.748;8.960;2022-07-10T04:59:06;4.23;;;4.13;;
3149;SDS011;32503;47.748;8.960;2022-07-10T05:01:36;4.67;;;4.27;;
3149;SDS011;32503;47.748;8.960;2022-07-10T05:04:04;4.77;;;4.50;;
3149;SDS011;32503;47.748;8.960;2022-07-10T05:06:31;5.20;;;5.00;;
3149;SDS011;32503;47.748;8.960;2022-07-10T05:08:58;4.77;;;4.67;;
3149;SDS011;32503;47.748;8.960;2022-07-10T05:11:25;4.00;;;3.80;;
3149;SDS011;32503;47.748;8.960;2022-07-10T05:13:52;4.20;;;4.10;;
3149;SDS011;32503;47.748;8.960;2022-07-10T05:16:19;4.97;;;4.57;;
3149;SDS011;32503;47.748;8.960;2022-07-10T05:18:48;4.57;;;4.37;;
3149;SDS011;32503;47.748;8.960;2022-07-10T05:21:15;4.23;;;4.13;;
3149;SDS011;32503;47.748;8.960;2022-07-10T05:23:42;5.00;;;4.80;;
3149;SDS011;32503;47.748;8.960;2022-07-10T05:26:09;4.77;;;4.57;;
3149;SDS011;32503;47.748;8.960;2022-07-10T05:28:36;4.70;;;4.50;;
3149;SDS011;32503;47.748;8.960;2022-07-10T05:31:04;4.70;;;4.47;;
3149;SDS011;32503;47.748;8.960;2022-07-10T05:33:31;4.93;;;4.73;;
3149;SDS011;32503;47.748;8.960;2022-07-10T05:36:00;4.93;;;4.73;;
3149;SDS011;32503;47.748;8.960;2022-07-10T05:38:27;4.70;;;4.60;;
3149;SDS011;32503;47.748;8.960;2022-07-10T05:40:54;5.60;;;5.30;;
3149;SDS011;32503;47.748;8.960;2022-07-10T05:43:21;4.93;;;4.73;;
3149;SDS011;32503;47.748;8.960;2022-07-10T05:45:48;5.03;;;4.83;;
3149;SDS011;32503;47.748;8.960;2022-07-10T05:48:15;5.40;;;5.20;;
3149;SDS011;32503;47.748;8.960;2022-07-10T05:50:44;4.40;;;4.30;;
3149;SDS011;32503;47.748;8.960;2022-07-10T05:53:13;4.50;;;4.30;;
3149;SDS011;32503;47.748;8.960;2022-07-10T05:55:40;4.20;;;4.00;;
3149;SDS011;32503;47.748;8.960;2022-07-10T05:58:07;4.33;;;4.13;;
3149;SDS011;32503;47.748;8.960;2022-07-10T06:00:34;4.33;;;4.13;;
3149;SDS011;32503;47.748;8.960;2022-07-10T06:03:01;4.53;;;4.30;;
3149;SDS011;32503;47.748;8.960;2022-07-10T06:05:28;4.50;;;4.30;;
3149;SDS011;32503;47.748;8.960;2022-07-10T06:07:55;5.70;;;5.30;;
3149;SDS011;32503;47.748;8.960;2022-07-10T06:10:24;4.27;;;4.17;;
3149;SDS011;32503;47.748;8.960;2022-07-10T06:12:51;4.27;;;4.17;;
3149;SDS011;32503;47.748;8.960;2022-07-10T06:15:18;3.80;;;3.70;;
3149;SDS011;32503;47.748;8.960;2022-07-10T06:17:45;4.57;;;4.30;;
3149;SDS011;32503;47.748;8.960;2022-07-10T06:20:12;4.40;;;4.20;;
3149;SDS011;32503;47.748;8.960;2022-07-10T06:22:40;4.60;;;4.40;;
3149;SDS011;32503;47.748;8.960;2022-07-10T06:25:07;5.00;;;4.80;;
3149;SDS011;32503;47.748;8.960;2022-07-10T06:27:38;4.33;;;4.23;;
3149;SDS011;32503;47.748;8.960;2022-07-10T06:30:05;4.20;;;4.10;;
3149;SDS011;32503;47.748;8.960;2022-07-10T06:32:33;4.30;;;4.07;;
3149;SDS011;32503;47.748;8.960;2022-07-10T06:35:00;4.30;;;4.20;;
3149;SDS011;32503;47.748;8.960;2022-07-10T06:37:28;4.43;;;4.23;;
3149;SDS011;32503;47.748;8.960;2022-07-10T06:39:56;5.50;;;5.10;;
3149;SDS011;32503;47.748;8.960;2022-07-10T06:42:23;5.20;;;5.00;;
3149;SDS011;32503;47.748;8.960;2022-07-10T06:44:52;5.43;;;5.23;;
3149;SDS011;32503;47.748;8.960;2022-07-10T06:47:19;5.40;;;5.00;;
3149;SDS011;32503;47.748;8.960;2022-07-10T06:50:04;4.47;;;4.27;;
3149;SDS011;32503;47.748;8.960;2022-07-10T06:52:34;4.57;;;4.33;;
3149;SDS011;32503;47.748;8.960;2022-07-10T06:55:02;4.10;;;4.00;;
3149;SDS011;32503;47.748;8.960;2022-07-10T06:57:31;4.50;;;4.30;;
3149;SDS011;32503;47.748;8.960;2022-07-10T06:59:59;5.20;;;5.00;;
3149;SDS011;32503;47.748;8.960;2022-07-10T07:02:27;5.10;;;4.80;;
3149;SDS011;32503;47.748;8.960;2022-07-10T07:04:54;4.50;;;4.30;;
3149;SDS011;32503;47.748;8.960;2022-07-10T07:07:21;4.47;;;4.27;;
3149;SDS011;32503;47.748;8.960;2022-07-10T07:09:48;6.53;;;6.23;;
3149;SDS011;32503;47.748;8.960;2022-07-10T07:12:15;5.50;;;5.20;;
3149;SDS011;32503;47.748;8.960;2022-07-10T07:14:43;6.70;;;6.30;;
3149;SDS011;32503;47.748;8.960;2022-07-10T07:17:12;6.10;;;5.80;;
3149;SDS011;32503;47.748;8.960;2022-07-10T07:19:46;7.10;;;6.80;;
3149;SDS011;32503;47.748;8.960;2022-07-10T07:22:30;6.10;;;5.90;;
3149;SDS011;32503;47.748;8.960;2022-07-10T07:25:15;6.53;;;6.13;;
3149;SDS011;32503;47.748;8.960;2022-07-10T07:27:42;6.50;;;5.87;;
3149;SDS011;32503;47.748;8.960;2022-07-10T07:30:10;5.93;;;5.63;;
3149;SDS011;32503;47.748;8.960;2022-07-10T07:32:42;5.70;;;5.30;;
3149;SDS011;32503;47.748;8.960;2022-07-10T07:35:13;5.60;;;5.40;;
3149;SDS011;32503;47.748;8.960;2022-07-10T07:37:43;6.07;;;5.87;;
3149;SDS011;32503;47.748;8.960;2022-07-10T07:40:13;8.03;;;7.50;;
3149;SDS011;32503;47.748;8.960;2022-07-10T07:42:44;6.60;;;6.30;;
3149;SDS011;32503;47.748;8.960;2022-07-10T07:45:12;6.10;;;5.90;;
3149;SDS011;32503;47.748;8.960;2022-07-10T07:47:44;5.47;;;5.17;;
3149;SDS011;32503;47.748;8.960;2022-07-10T07:50:12;5.90;;;5.63;;
3149;SDS011;32503;47.748;8.960;2022-07-10T07:52:40;6.00;;;5.80;;
3149;SDS011;32503;47.748;8.960;2022-07-10T07:55:08;7.17;;;6.87;;
3149;SDS011;32503;47.748;8.960;2022-07-10T07:57:36;5.90;;;5.60;;
3149;SDS011;32503;47.748;8.960;2022-07-10T08:00:05;5.23;;;5.03;;
3149;SDS011;32503;47.748;8.960;2022-07-10T08:02:34;5.63;;;5.33;;
3149;SDS011;32503;47.748;8.960;2022-07-10T08:05:03;5.53;;;5.33;;
3149;SDS011;32503;47.748;8.960;2022-07-10T08:07:35;5.67;;;5.43;;
3149;SDS011;32503;47.748;8.960;2022-07-10T08:10:04;5.37;;;5.17;;
3149;SDS011;32503;47.748;8.960;2022-07-10T08:12:34;5.00;;;4.67;;
3149;SDS011;32503;47.748;8.960;2022-07-10T08:15:01;6.00;;;5.60;;
3149;SDS011;32503;47.748;8.960;2022-07-10T08:17:29;5.53;;;5.33;;
3149;SDS011;32503;47.748;8.960;2022-07-10T08:19:56;5.13;;;4.93;;
3149;SDS011;32503;47.748;8.960;2022-07-10T08:22:24;6.03;;;5.63;;
3149;SDS011;32503;47.748;8.960;2022-07-10T08:24:51;5.50;;;5.20;;
3149;SDS011;32503;47.748;8.960;2022-07-10T08:27:18;5.63;;;5.30;;
3149;SDS011;32503;47.748;8.960;2022-07-10T08:29:46;5.53;;;5.33;;
3149;SDS011;32503;47.748;8.960;2022-07-10T08:32:13;6.70;;;6.30;;
3149;SDS011;32503;47.748;8.960;2022-07-10T08:34:40;5.90;;;5.60;;
3149;SDS011;32503;47.748;8.960;2022-07-10T08:37:07;5.00;;;4.80;;
3149;SDS011;32503;47.748;8.960;2022-07-10T08:39:36;5.00;;;4.80;;
3149;SDS011;32503;47.748;8.960;2022-07-10T08:42:04;7.23;;;6.43;;
3149;SDS011;32503;47.748;8.960;2022-07-10T08:44:32;6.17;;;5.17;;
3149;SDS011;32503;47.748;8.960;2022-07-10T08:47:00;4.80;;;4.70;;
3149;SDS011;32503;47.748;8.960;2022-07-10T08:49:29;4.60;;;4.40;;
3149;SDS011;32503;47.748;8.960;2022-07-10T08:52:00;5.13;;;4.93;;
3149;SDS011;32503;47.748;8.960;2022-07-10T08:54:30;4.20;;;4.10;;
3149;SDS011;32503;47.748;8.960;2022-07-10T08:57:01;4.40;;;4.20;;
3149;SDS011;32503;47.748;8.960;2022-07-10T08:59:30;4.70;;;4.50;;
3149;SDS011;32503;47.748;8.960;2022-07-10T09:01:57;6.13;;;5.73;;
3149;SDS011;32503;47.748;8.960;2022-07-10T09:04:26;5.50;;;5.30;;
3149;SDS011;32503;47.748;8.960;2022-07-10T09:06:54;5.60;;;5.40;;
3149;SDS011;32503;47.748;8.960;2022-07-10T09:09:22;5.00;;;4.70;;
3149;SDS011;32503;47.748;8.960;2022-07-10T09:11:54;5.53;;;5.03;;
3149;SDS011;32503;47.748;8.960;2022-07-10T09:14:25;4.90;;;4.70;;
3149;SDS011;32503;47.748;8.960;2022-07-10T09:16:54;4.93;;;4.80;;
3149;SDS011;32503;47.748;8.960;2022-07-10T09:19:22;5.33;;;5.13;;
3149;SDS011;32503;47.748;8.960;2022-07-10T09:21:51;5.67;;;5.27;;
3149;SDS011;32503;47.748;8.960;2022-07-10T09:24:20;4.57;;;4.37;;
3149;SDS011;32503;47.748;8.960;2022-07-10T09:26:57;5.13;;;4.93;;
3149;SDS011;32503;47.748;8.960;2022-07-10T09:29:30;5.20;;;5.00;;
3149;SDS011;32503;47.748;8.960;2022-07-10T09:31:59;5.17;;;4.97;;
3149;SDS011;32503;47.748;8.960;2022-07-10T09:34:37;5.33;;;5.13;;
3149;SDS011;32503;47.748;8.960;2022-07-10T09:39:53;4.83;;;4.63;;
3149;SDS011;32503;47.748;8.960;2022-07-10T09:42:25;4.30;;;4.10;;
3149;SDS011;32503;47.748;8.960;2022-07-10T09:45:19;5.23;;;5.03;;
3149;SDS011;32503;47.748;8.960;2022-07-10T09:47:55;5.43;;;5.13;;
3149;SDS011;32503;47.748;8.960;2022-07-10T09:50:30;5.20;;;4.90;;
3149;SDS011;32503;47.748;8.960;2022-07-10T09:52:59;4.50;;;4.33;;
3149;SDS011;32503;47.748;8.960;2022-07-10T09:55:29;4.87;;;4.67;;
3149;SDS011;32503;47.748;8.960;2022-07-10T09:57:58;4.80;;;4.60;;
3149;SDS011;32503;47.748;8.960;2022-07-10T10:00:28;4.20;;;4.10;;
3149;SDS011;32503;47.748;8.960;2022-07-10T10:02:58;4.70;;;4.50;;
3149;SDS011;32503;47.748;8.960;2022-07-10T10:05:30;4.50;;;4.30;;
3149;SDS011;32503;47.748;8.960;2022-07-10T10:08:04;3.73;;;3.63;;
3149;SDS011;32503;47.748;8.960;2022-07-10T10:10:38;4.20;;;4.10;;
3149;SDS011;32503;47.748;8.960;2022-07-10T10:13:10;4.67;;;4.37;;
3149;SDS011;32503;47.748;8.960;2022-07-10T10:15:43;4.57;;;4.27;;
3149;SDS011;32503;47.748;8.960;2022-07-10T10:18:14;4.50;;;4.30;;
3149;SDS011;32503;47.748;8.960;2022-07-10T10:20:44;4.43;;;4.30;;
3149;SDS011;32503;47.748;8.960;2022-07-10T10:23:13;4.60;;;4.40;;
3149;SDS011;32503;47.748;8.960;2022-07-10T10:25:43;4.33;;;3.87;;
3149;SDS011;32503;47.748;8.960;2022-07-10T10:28:11;4.33;;;4.23;;
3149;SDS011;32503;47.748;8.960;2022-07-10T10:30:41;5.30;;;5.10;;
3149;SDS011;32503;47.748;8.960;2022-07-10T10:36:12;4.50;;;4.30;;
3149;SDS011;32503;47.748;8.960;2022-07-10T10:39:01;4.53;;;4.33;;
3149;SDS011;32503;47.748;8.960;2022-07-10T10:41:39;4.20;;;4.10;;
3149;SDS011;32503;47.748;8.960;2022-07-10T10:44:27;3.87;;;3.73;;
3149;SDS011;32503;47.748;8.960;2022-07-10T10:47:02;4.20;;;4.10;;
3149;SDS011;32503;47.748;8.960;2022-07-10T10:49:48;3.70;;;3.60;;
3149;SDS011;32503;47.748;8.960;2022-07-10T10:52:27;3.80;;;3.70;;
3149;SDS011;32503;47.748;8.960;2022-07-10T10:55:10;4.43;;;4.13;;
3149;SDS011;32503;47.748;8.960;2022-07-10T10:57:40;3.73;;;3.63;;
3149;SDS011;32503;47.748;8.960;2022-07-10T11:00:32;3.23;;;3.13;;
3149;SDS011;32503;47.748;8.960;2022-07-10T11:05:50;3.80;;;3.60;;
3149;SDS011;32503;47.748;8.960;2022-07-10T11:08:36;3.43;;;3.33;;
3149;SDS011;32503;47.748;8.960;2022-07-10T11:14:10;3.77;;;3.67;;
3149;SDS011;32503;47.748;8.960;2022-07-10T11:16:45;3.20;;;3.10;;
3149;SDS011;32503;47.748;8.960;2022-07-10T11:19:23;3.93;;;3.73;;
3149;SDS011;32503;47.748;8.960;2022-07-10T11:25:22;3.97;;;3.77;;
3149;SDS011;32503;47.748;8.960;2022-07-10T11:28:08;3.80;;;3.70;;
3149;SDS011;32503;47.748;8.960;2022-07-10T11:30:43;3.60;;;3.50;;
3149;SDS011;32503;47.748;8.960;2022-07-10T11:33:12;4.20;;;4.00;;
3149;SDS011;32503;47.748;8.960;2022-07-10T11:35:43;3.87;;;3.67;;
3149;SDS011;32503;47.748;8.960;2022-07-10T11:38:12;3.93;;;3.73;;
3149;SDS011;32503;47.748;8.960;2022-07-10T11:40:44;3.80;;;3.70;;
3149;SDS011;32503;47.748;8.960;2022-07-10T11:43:12;3.50;;;3.40;;
3149;SDS011;32503;47.748;8.960;2022-07-10T11:45:42;3.60;;;3.50;;
3149;SDS011;32503;47.748;8.960;2022-07-10T11:48:16;4.10;;;3.90;;
3149;SDS011;32503;47.748;8.960;2022-07-10T11:50:45;3.97;;;3.77;;
3149;SDS011;32503;47.748;8.960;2022-07-10T11:53:12;4.23;;;3.83;;
3149;SDS011;32503;47.748;8.960;2022-07-10T11:55:40;3.90;;;3.80;;
3149;SDS011;32503;47.748;8.960;2022-07-10T11:58:14;4.10;;;4.00;;
3149;SDS011;32503;47.748;8.960;2022-07-10T12:00:42;3.97;;;3.77;;
3149;SDS011;32503;47.748;8.960;2022-07-10T12:03:16;4.10;;;3.90;;
3149;SDS011;32503;47.748;8.960;2022-07-10T12:05:47;3.70;;;3.60;;
3149;SDS011;32503;47.748;8.960;2022-07-10T12:08:15;4.10;;;4.00;;
3149;SDS011;32503;47.748;8.960;2022-07-10T12:10:44;3.80;;;3.70;;
3149;SDS011;32503;47.748;8.960;2022-07-10T12:13:12;3.70;;;3.50;;
3149;SDS011;32503;47.748;8.960;2022-07-10T12:15:41;3.87;;;3.77;;
3149;SDS011;32503;47.748;8.960;2022-07-10T12:18:14;3.90;;;3.80;;
3149;SDS011;32503;47.748;8.960;2022-07-10T12:20:44;4.77;;;4.50;;
3149;SDS011;32503;47.748;8.960;2022-07-10T12:23:14;3.63;;;3.53;;
3149;SDS011;32503;47.748;8.960;2022-07-10T12:25:42;4.30;;;4.20;;
3149;SDS011;32503;47.748;8.960;2022-07-10T12:28:10;5.27;;;4.83;;
3149;SDS011;32503;47.748;8.960;2022-07-10T12:30:38;4.07;;;3.93;;
3149;SDS011;32503;47.748;8.960;2022-07-10T12:33:08;4.27;;;4.17;;
3149;SDS011;32503;47.748;8.960;2022-07-10T12:35:51;4.13;;;4.03;;
3149;SDS011;32503;47.748;8.960;2022-07-10T12:38:22;3.90;;;3.80;;
3149;SDS011;32503;47.748;8.960;2022-07-10T12:40:51;4.50;;;4.30;;
3149;SDS011;32503;47.748;8.960;2022-07-10T12:43:34;4.43;;;4.23;;
3149;SDS011;32503;47.748;8.960;2022-07-10T12:46:08;4.90;;;4.70;;
3149;SDS011;32503;47.748;8.960;2022-07-10T12:48:41;4.40;;;4.20;;
3149;SDS011;32503;47.748;8.960;2022-07-10T12:53:57;3.93;;;3.83;;
3149;SDS011;32503;47.748;8.960;2022-07-10T12:56:31;3.90;;;3.70;;
3149;SDS011;32503;47.748;8.960;2022-07-10T12:59:01;3.97;;;3.80;;
3149;SDS011;32503;47.748;8.960;2022-07-10T13:01:38;4.47;;;4.17;;
3149;SDS011;32503;47.748;8.960;2022-07-10T13:04:07;4.23;;;4.03;;
3149;SDS011;32503;47.748;8.960;2022-07-10T13:06:35;4.30;;;4.10;;
3149;SDS011;32503;47.748;8.960;2022-07-10T13:09:18;4.73;;;4.63;;
3149;SDS011;32503;47.748;8.960;2022-07-10T13:11:48;3.87;;;3.77;;
3149;SDS011;32503;47.748;8.960;2022-07-10T13:14:15;3.97;;;3.87;;
3149;SDS011;32503;47.748;8.960;2022-07-10T13:16:42;4.60;;;4.40;;
3149;SDS011;32503;47.748;8.960;2022-07-10T13:19:10;4.77;;;4.67;;
3149;SDS011;32503;47.748;8.960;2022-07-10T13:21:37;5.00;;;4.80;;
3149;SDS011;32503;47.748;8.960;2022-07-10T13:24:05;4.20;;;4.10;;
3149;SDS011;32503;47.748;8.960;2022-07-10T13:26:34;4.53;;;4.33;;
3149;SDS011;32503;47.748;8.960;2022-07-10T13:29:01;4.60;;;4.40;;
3149;SDS011;32503;47.748;8.960;2022-07-10T13:31:28;5.40;;;4.57;;
3149;SDS011;32503;47.748;8.960;2022-07-10T13:33:55;4.97;;;4.47;;
3149;SDS011;32503;47.748;8.960;2022-07-10T13:36:22;4.57;;;4.47;;
3149;SDS011;32503;47.748;8.960;2022-07-10T13:38:50;4.40;;;4.30;;
3149;SDS011;32503;47.748;8.960;2022-07-10T13:41:17;4.30;;;4.10;;
3149;SDS011;32503;47.748;8.960;2022-07-10T13:43:46;4.40;;;4.20;;
3149;SDS011;32503;47.748;8.960;2022-07-10T13:46:13;4.63;;;4.33;;
3149;SDS011;32503;47.748;8.960;2022-07-10T13:48:40;4.40;;;4.30;;
3149;SDS011;32503;47.748;8.960;2022-07-10T13:51:07;4.43;;;4.23;;
3149;SDS011;32503;47.748;8.960;2022-07-10T13:53:35;4.77;;;4.57;;
3149;SDS011;32503;47.748;8.960;2022-07-10T13:56:03;5.00;;;4.80;;
3149;SDS011;32503;47.748;8.960;2022-07-10T13:58:33;4.47;;;4.17;;
3149;SDS011;32503;47.748;8.960;2022-07-10T14:01:03;4.40;;;4.23;;
3149;SDS011;32503;47.748;8.960;2022-07-10T14:03:30;4.20;;;4.10;;
3149;SDS011;32503;47.748;8.960;2022-07-10T14:05:58;4.73;;;4.43;;
3149;SDS011;32503;47.748;8.960;2022-07-10T14:08:25;4.80;;;4.60;;
3149;SDS011;32503;47.748;8.960;2022-07-10T14:10:52;3.40;;;3.30;;
3149;SDS011;32503;47.748;8.960;2022-07-10T14:13:19;5.13;;;4.80;;
3149;SDS011;32503;47.748;8.960;2022-07-10T14:15:46;4.57;;;4.37;;
3149;SDS011;32503;47.748;8.960;2022-07-10T14:18:15;4.20;;;4.10;;
3149;SDS011;32503;47.748;8.960;2022-07-10T14:20:59;3.43;;;3.30;;
3149;SDS011;32503;47.748;8.960;2022-07-10T14:23:31;4.07;;;3.87;;
3149;SDS011;32503;47.748;8.960;2022-07-10T14:25:58;3.70;;;3.60;;
3149;SDS011;32503;47.748;8.960;2022-07-10T14:28:25;4.63;;;4.43;;
3149;SDS011;32503;47.748;8.960;2022-07-10T14:30:52;4.80;;;4.43;;
3149;SDS011;32503;47.748;8.960;2022-07-10T14:33:21;3.87;;;3.77;;
3149;SDS011;32503;47.748;8.960;2022-07-10T14:35:48;4.07;;;3.77;;
3149;SDS011;32503;47.748;8.960;2022-07-10T14:38:15;3.60;;;3.50;;
3149;SDS011;32503;47.748;8.960;2022-07-10T14:40:43;4.40;;;4.30;;
3149;SDS011;32503;47.748;8.960;2022-07-10T14:43:10;4.27;;;4.17;;
3149;SDS011;32503;47.748;8.960;2022-07-10T14:45:37;4.10;;;4.00;;
3149;SDS011;32503;47.748;8.960;2022-07-10T14:48:04;3.73;;;3.63;;
3149;SDS011;32503;47.748;8.960;2022-07-10T14:50:34;4.40;;;4.00;;
3149;SDS011;32503;47.748;8.960;2022-07-10T14:53:01;4.60;;;4.50;;
3149;SDS011;32503;47.748;8.960;2022-07-10T14:55:28;4.70;;;4.30;;
3149;SDS011;32503;47.748;8.960;2022-07-10T14:57:56;4.20;;;4.00;;
3149;SDS011;32503;47.748;8.960;2022-07-10T15:00:23;4.57;;;4.27;;
3149;SDS011;32503;47.748;8.960;2022-07-10T15:02:50;3.53;;;3.43;;
3149;SDS011;32503;47.748;8.960;2022-07-10T15:05:17;3.93;;;3.83;;
3149;SDS011;32503;47.748;8.960;2022-07-10T15:07:46;4.40;;;4.20;;
3149;SDS011;32503;47.748;8.960;2022-07-10T15:10:13;3.93;;;3.83;;
3149;SDS011;32503;47.748;8.960;2022-07-10T15:12:41;4.50;;;4.30;;
3149;SDS011;32503;47.748;8.960;2022-07-10T15:15:09;3.80;;;3.70;;
3149;SDS011;32503;47.748;8.960;2022-07-10T15:17:36;3.90;;;3.80;;
3149;SDS011;32503;47.748;8.960;2022-07-10T15:20:04;3.80;;;3.70;;
3149;SDS011;32503;47.748;8.960;2022-07-10T15:22:32;3.77;;;3.67;;
3149;SDS011;32503;47.748;8.960;2022-07-10T15:25:01;4.03;;;3.90;;
3149;SDS011;32503;47.748;8.960;2022-07-10T15:27:28;4.30;;;4.20;;
3149;SDS011;32503;47.748;8.960;2022-07-10T15:29:55;4.33;;;4.13;;